Terminal Aerodrome Forecast
Issued by NWS Pendleton, OR

Home | Current Version | Previous Version | Text Only | Print | Product List | Glossary On
Versions: 1 2 3 4 5 6 7 8 9 10 11 12 13 14 15 16 17
000
FTUS46 KPDT 302300
TAFPDT
TAF
KPDT 302320Z 3100/3124 32008KT P6SM BKN200
     FM310200 23011KT P6SM SCT080 SCT200
     FM311200 23010KT P6SM -SHRA BKN050 OVC070
     FM311700 26014G23KT P6SM VCSH SCT050 BKN090
     FM312000 28022G32KT P6SM SCT100=

USA.gov is the U.S. government's official web portal to all federal, state and local government web resources and services.